ORD weather

Chicago O'Hare International Airport
Chicago, Illinois, United States

Public forecast

Using degrees Fahrenheit for public forecast. Weather courtesy of forecast.io.

METAR (pilot weather report)

Retrieved 2018/06/19 07:51 UTC (15 minutes ago):

KORD 190751Z 01007KT 10SM BKN005 OVC018 18/17 A2998 RMK AO2 LTG DSNT SW AND W SLP147 OCNL LTGIC DSNT SW CB DSNT SW T01830167 $

TAF (pilot weather forecast)

Retrieved 2018/06/19 06:33 UTC (2 hours ago):

TAF KORD 190530Z 1906/2012 04009KT 6SM -SHRA VCTS BKN006 OVC015CB TEMPO 1906/1908 2SM -TSRA SCT006 OVC015CB FM190900 03008KT 6SM BR VCSH BKN005 OVC015 FM191500 09007KT P6SM SCT009 BKN015 FM191900 03010KT 6SM -SHRA VCTS SCT015 BKN030CB FM192300 03009KT P6SM BKN020 FM200600 03006KT 5SM BR SCT007 BKN015